createdAt,value
2022-10-13T00:01:43.528Z,87.06
2022-10-13T00:04:10.397Z,86.74
2022-10-13T00:06:36.743Z,86.91
2022-10-13T00:09:03.707Z,86.02
2022-10-13T00:11:30.831Z,86.47
2022-10-13T00:13:59.605Z,87.24
2022-10-13T00:16:27.012Z,87.06
2022-10-13T00:18:53.488Z,86.45
2022-10-13T00:21:23.610Z,86.71
2022-10-13T00:23:51.397Z,86.69
2022-10-13T00:26:18.115Z,86.68
2022-10-13T00:28:48.457Z,86.12
2022-10-13T00:31:30.902Z,86.52
2022-10-13T00:33:59.797Z,86.39
2022-10-13T00:36:28.983Z,86.18
2022-10-13T00:38:56.915Z,86.82
2022-10-13T00:41:23.255Z,86.30
2022-10-13T00:44:07.343Z,86.23
2022-10-13T00:46:36.897Z,86.77
2022-10-13T00:49:23.081Z,86.46
2022-10-13T00:51:50.601Z,86.90
2022-10-13T00:54:22.632Z,86.97
2022-10-13T00:56:51.376Z,86.37
2022-10-13T00:59:28.915Z,86.91
2022-10-13T01:01:57.720Z,86.98
2022-10-13T01:04:27.872Z,87.14
2022-10-13T01:06:55.671Z,87.41
2022-10-13T01:09:22.103Z,86.30
2022-10-13T01:11:55.320Z,86.81
2022-10-13T01:14:50.906Z,86.72
2022-10-13T01:17:51.090Z,87.18
2022-10-13T01:20:32.669Z,87.29
2022-10-13T01:23:17.364Z,87.05
2022-10-13T01:26:14.813Z,86.71
2022-10-13T01:28:59.964Z,86.77
2022-10-13T01:31:52.024Z,87.39
2022-10-13T01:34:38.539Z,87.00
2022-10-13T01:37:30.184Z,86.37
2022-10-13T01:40:17.739Z,86.92
2022-10-13T01:43:02.292Z,87.17
2022-10-13T01:45:35.580Z,86.91
2022-10-13T01:48:04.564Z,87.44
2022-10-13T01:50:32.801Z,86.71
2022-10-13T01:53:02.176Z,86.49
2022-10-13T01:55:29.683Z,86.74
2022-10-13T01:57:56.243Z,87.01
2022-10-13T02:00:22.889Z,87.38
2022-10-13T02:03:09.900Z,87.16
2022-10-13T02:05:51.587Z,86.81
2022-10-13T02:08:38.067Z,87.33
2022-10-13T02:11:15.601Z,87.45
2022-10-13T02:13:49.191Z,87.11
2022-10-13T02:16:16.231Z,87.44
2022-10-13T02:18:43.795Z,86.92
2022-10-13T02:21:10.521Z,87.48
2022-10-13T02:23:36.943Z,86.57
2022-10-13T02:26:03.809Z,86.66
2022-10-13T02:28:30.332Z,87.50
2022-10-13T02:30:56.836Z,87.84
2022-10-13T02:33:23.183Z,87.22
2022-10-13T02:35:49.699Z,87.46
2022-10-13T02:38:16.090Z,87.35
2022-10-13T02:40:42.483Z,87.34
2022-10-13T02:43:08.878Z,87.47
2022-10-13T02:45:35.253Z,87.58
2022-10-13T02:48:01.730Z,86.91
2022-10-13T02:50:28.286Z,87.63
2022-10-13T02:52:54.749Z,86.88
2022-10-13T02:55:21.315Z,87.92
2022-10-13T02:57:47.671Z,87.20
2022-10-13T03:00:14.743Z,87.19
2022-10-13T03:02:42.134Z,86.66
2022-10-13T03:05:09.477Z,87.05
2022-10-13T03:07:36.058Z,87.74
2022-10-13T03:10:02.481Z,87.55
2022-10-13T03:12:28.839Z,87.44
2022-10-13T03:14:55.191Z,87.49
2022-10-13T03:17:21.652Z,87.50
2022-10-13T03:19:48.265Z,87.87
2022-10-13T03:22:15.408Z,88.01
2022-10-13T03:24:42.459Z,87.60
2022-10-13T03:27:09.292Z,87.38
2022-10-13T03:29:35.683Z,87.74
2022-10-13T03:32:02.083Z,88.18
2022-10-13T03:34:28.447Z,87.26
2022-10-13T03:36:54.835Z,87.07
2022-10-13T03:39:22.063Z,87.27
2022-10-13T03:41:48.551Z,88.09
2022-10-13T03:44:14.898Z,87.48
2022-10-13T03:46:41.324Z,87.59
2022-10-13T03:49:07.739Z,88.07
2022-10-13T03:51:34.233Z,87.73
2022-10-13T03:54:00.588Z,87.91
2022-10-13T03:56:28.021Z,87.69
2022-10-13T03:58:59.688Z,87.36
2022-10-13T04:01:29.048Z,87.90
2022-10-13T04:03:56.682Z,88.32
2022-10-13T04:06:25.028Z,88.56
2022-10-13T04:08:52.272Z,88.78
2022-10-13T04:11:19.743Z,88.62
2022-10-13T04:13:46.381Z,88.41
2022-10-13T04:16:24.969Z,88.44
2022-10-13T04:19:00.458Z,87.54
2022-10-13T04:21:28.675Z,88.29
2022-10-13T04:23:57.216Z,88.86
2022-10-13T04:26:25.789Z,87.95
2022-10-13T04:28:55.360Z,87.76
2022-10-13T04:31:23.296Z,88.06
2022-10-13T04:33:50.246Z,87.95
2022-10-13T04:36:18.283Z,87.80
2022-10-13T04:38:44.807Z,87.77
2022-10-13T04:41:12.552Z,87.67
2022-10-13T04:43:38.916Z,87.84
2022-10-13T04:46:14.015Z,87.84
2022-10-13T04:48:41.022Z,88.83
2022-10-13T04:51:10.166Z,87.82
2022-10-13T04:53:36.775Z,88.14
2022-10-13T04:56:23.104Z,88.08
2022-10-13T04:58:49.737Z,88.33
2022-10-13T05:01:21.695Z,87.68
2022-10-13T05:03:53.456Z,88.40
2022-10-13T05:06:27.091Z,88.61
2022-10-13T05:08:53.535Z,88.54
2022-10-13T05:11:20.501Z,88.56
2022-10-13T05:13:48.161Z,88.57
2022-10-13T05:16:16.733Z,88.14
2022-10-13T05:18:43.440Z,87.79
2022-10-13T05:21:12.788Z,88.54
2022-10-13T05:23:40.331Z,88.45
2022-10-13T05:26:09.759Z,88.12
2022-10-13T05:28:36.504Z,88.61
2022-10-13T05:31:21.335Z,87.66
2022-10-13T05:33:48.581Z,88.26
2022-10-13T05:36:17.471Z,88.59
2022-10-13T05:38:43.908Z,88.28
2022-10-13T05:41:12.776Z,88.79
2022-10-13T05:43:40.941Z,88.03
2022-10-13T05:46:08.017Z,88.28
2022-10-13T05:48:34.982Z,87.82
2022-10-13T05:51:05.303Z,87.63
2022-10-13T05:53:34.809Z,87.91
2022-10-13T05:56:07.006Z,87.33
2022-10-13T05:58:43.141Z,87.97
2022-10-13T06:01:13.405Z,88.17
2022-10-13T06:03:42.088Z,88.39
2022-10-13T06:06:09.503Z,87.68
2022-10-13T06:08:36.990Z,87.69
2022-10-13T06:11:05.419Z,88.07
2022-10-13T06:13:31.808Z,88.18
2022-10-13T06:15:58.155Z,87.58
2022-10-13T06:18:24.843Z,88.38
2022-10-13T06:20:51.300Z,87.58
2022-10-13T06:23:17.728Z,87.93
2022-10-13T06:25:51.787Z,87.44
2022-10-13T06:28:19.199Z,87.77
2022-10-13T06:30:54.635Z,87.03
2022-10-13T06:33:22.125Z,87.73
2022-10-13T06:35:48.717Z,87.65
2022-10-13T06:38:15.059Z,87.10
2022-10-13T06:40:42.128Z,88.09
2022-10-13T06:43:09.597Z,87.39
2022-10-13T06:45:39.362Z,87.76
2022-10-13T06:48:05.928Z,87.61
2022-10-13T06:50:32.334Z,87.55
2022-10-13T06:52:58.692Z,87.87
2022-10-13T06:55:25.063Z,87.14
2022-10-13T06:57:52.383Z,87.29
2022-10-13T07:00:18.927Z,87.54
2022-10-13T07:02:45.385Z,87.58
2022-10-13T07:05:11.934Z,87.57
2022-10-13T07:07:38.271Z,87.47
2022-10-13T07:10:04.947Z,87.50
2022-10-13T07:12:31.296Z,86.80
2022-10-13T07:14:57.634Z,87.64
2022-10-13T07:17:24.174Z,86.91
2022-10-13T07:19:51.355Z,87.39
2022-10-13T07:22:17.868Z,87.22
2022-10-13T07:24:44.774Z,87.37
2022-10-13T07:27:11.168Z,87.23
2022-10-13T07:29:37.608Z,86.77
2022-10-13T07:32:04.172Z,86.62
2022-10-13T07:34:30.569Z,86.99
2022-10-13T07:36:56.943Z,86.74
2022-10-13T07:39:23.371Z,86.45
2022-10-13T07:41:51.320Z,86.78
2022-10-13T07:44:18.052Z,86.56
2022-10-13T07:46:44.718Z,86.52
2022-10-13T07:49:15.251Z,86.60
2022-10-13T07:51:43.086Z,86.78
2022-10-13T07:54:10.388Z,86.13
2022-10-13T07:56:37.438Z,86.34
2022-10-13T07:59:05.453Z,86.35
2022-10-13T08:01:32.127Z,85.74
2022-10-13T08:03:59.200Z,86.17
2022-10-13T08:06:27.468Z,85.88
2022-10-13T08:08:53.859Z,85.59
2022-10-13T08:11:20.338Z,85.44
2022-10-13T08:13:51.226Z,85.54
2022-10-13T08:16:18.188Z,85.36
2022-10-13T08:18:45.978Z,85.28
2022-10-13T08:21:57.457Z,85.73
2022-10-13T08:24:04.636Z,85.62
2022-10-13T08:26:32.393Z,85.77
2022-10-13T08:31:45.495Z,85.67
2022-10-13T08:34:12.575Z,84.91
2022-10-13T08:36:39.584Z,85.17
2022-10-13T08:39:06.453Z,85.04
2022-10-13T08:41:37.524Z,84.99
2022-10-13T08:44:59.230Z,84.84
2022-10-13T08:47:06.939Z,84.73
2022-10-13T08:49:33.870Z,84.24
2022-10-13T08:52:05.298Z,84.10
2022-10-13T08:54:33.281Z,83.95
2022-10-13T08:59:27.384Z,83.78
2022-10-13T09:01:55.472Z,83.75
2022-10-13T09:04:36.074Z,83.49
2022-10-13T09:07:07.031Z,83.58
2022-10-13T09:09:33.505Z,83.75
2022-10-13T09:12:00.332Z,82.87
2022-10-13T09:14:31.576Z,82.80
2022-10-13T09:17:16.307Z,82.51
2022-10-13T09:19:43.801Z,82.77
2022-10-13T09:22:22.237Z,82.80
2022-10-13T09:25:07.805Z,82.44
2022-10-13T09:27:59.177Z,82.13
2022-10-13T09:31:28.487Z,82.01
2022-10-13T09:34:00.923Z,82.23
2022-10-13T09:36:28.464Z,81.94
2022-10-13T09:39:16.437Z,81.60
2022-10-13T09:41:43.829Z,81.54
2022-10-13T09:44:17.504Z,81.95
2022-10-13T09:46:59.184Z,82.07
2022-10-13T09:49:40.270Z,82.13
2022-10-13T09:52:29.812Z,81.87
2022-10-13T09:55:00.930Z,81.35
2022-10-13T09:57:39.471Z,81.74
2022-10-13T10:00:15.302Z,81.60
2022-10-13T10:03:05.489Z,81.36
2022-10-13T10:05:44.936Z,81.30
2022-10-13T10:08:33.954Z,81.58
2022-10-13T10:11:12.479Z,81.19
2022-10-13T10:13:38.963Z,80.88
2022-10-13T10:16:20.505Z,80.84
2022-10-13T10:18:57.743Z,80.80
2022-10-13T10:21:27.981Z,80.91
2022-10-13T10:23:58.283Z,80.60
2022-10-13T10:26:47.087Z,80.82
2022-10-13T10:29:26.187Z,81.16
2022-10-13T10:32:11.211Z,80.89
2022-10-13T10:34:46.552Z,80.77
2022-10-13T10:37:40.549Z,80.90
2022-10-13T10:40:38.021Z,80.34
2022-10-13T10:43:13.685Z,80.58
2022-10-13T10:45:40.728Z,80.39
2022-10-13T10:48:32.961Z,80.78
2022-10-13T10:51:01.092Z,80.60
2022-10-13T10:53:40.426Z,80.80
2022-10-13T10:56:15.538Z,80.47
2022-10-13T10:59:05.115Z,80.27
2022-10-13T11:01:45.161Z,80.64
2022-10-13T11:04:20.827Z,80.28
2022-10-13T11:06:47.572Z,80.25
2022-10-13T11:09:14.023Z,80.30
2022-10-13T11:11:42.223Z,79.33
2022-10-13T11:14:08.709Z,79.45
2022-10-13T11:16:40.242Z,79.49
2022-10-13T11:19:29.710Z,80.09
2022-10-13T11:21:59.011Z,79.52
2022-10-13T11:24:39.244Z,79.36
2022-10-13T11:27:17.579Z,79.66
2022-10-13T11:29:47.257Z,79.11
2022-10-13T11:32:36.765Z,79.13
2022-10-13T11:35:05.912Z,79.00
2022-10-13T11:37:51.733Z,79.07
2022-10-13T11:40:35.122Z,78.66
2022-10-13T11:43:09.815Z,78.46
2022-10-13T11:46:14.677Z,79.00
2022-10-13T11:49:02.786Z,78.43
2022-10-13T11:51:38.550Z,78.35
2022-10-13T11:54:34.561Z,78.97
2022-10-13T11:57:01.419Z,78.27
2022-10-13T11:59:33.687Z,78.83
2022-10-13T12:02:14.517Z,78.27
2022-10-13T12:04:46.806Z,78.81
2022-10-13T12:07:15.741Z,78.05
2022-10-13T12:09:51.563Z,77.57
2022-10-13T12:12:24.535Z,78.44
2022-10-13T12:14:54.456Z,77.47
2022-10-13T12:17:31.797Z,77.26
2022-10-13T12:20:20.334Z,78.20
2022-10-13T12:22:51.170Z,77.34
2022-10-13T12:25:19.639Z,77.35
2022-10-13T12:27:50.091Z,77.46
2022-10-13T12:30:25.290Z,76.97
2022-10-13T12:32:54.353Z,76.53
2022-10-13T12:35:32.513Z,76.14
2022-10-13T12:38:13.173Z,75.75
2022-10-13T12:40:40.694Z,75.43
2022-10-13T12:43:07.219Z,75.19
2022-10-13T12:45:34.880Z,73.53
2022-10-13T12:48:01.404Z,73.97
2022-10-13T12:50:36.899Z,74.19
2022-10-13T12:53:12.019Z,73.44
2022-10-13T12:55:55.083Z,73.60
2022-10-13T12:58:28.965Z,73.54
2022-10-13T13:00:58.126Z,73.11
2022-10-13T13:03:29.090Z,73.78
2022-10-13T13:06:31.859Z,74.70
2022-10-13T13:09:15.672Z,73.86
2022-10-13T13:11:42.007Z,73.73
2022-10-13T13:14:35.565Z,73.79
2022-10-13T13:17:09.290Z,73.75
2022-10-13T13:19:36.618Z,73.62
2022-10-13T13:22:05.687Z,73.38
2022-10-13T13:24:40.114Z,73.96
2022-10-13T13:27:19.916Z,73.75
2022-10-13T13:29:46.943Z,75.06
2022-10-13T13:32:19.834Z,74.99
2022-10-13T13:34:46.898Z,73.95
2022-10-13T13:37:24.590Z,75.30
2022-10-13T13:39:51.080Z,74.51
2022-10-13T13:42:17.749Z,74.70
2022-10-13T13:44:44.171Z,74.94
2022-10-13T13:47:16.953Z,74.96
2022-10-13T13:49:43.648Z,73.71
2022-10-13T13:52:10.071Z,74.06
2022-10-13T13:54:36.540Z,74.27
2022-10-13T13:57:03.188Z,73.99
2022-10-13T13:59:29.580Z,74.51
2022-10-13T14:01:56.062Z,74.51
2022-10-13T14:04:22.606Z,74.75
2022-10-13T14:06:49.020Z,74.85
2022-10-13T14:09:15.442Z,74.98
2022-10-13T14:11:41.823Z,74.76
2022-10-13T14:14:08.230Z,74.41
2022-10-13T14:16:34.611Z,74.96
2022-10-13T14:19:01.060Z,74.24
2022-10-13T14:21:27.462Z,74.35
2022-10-13T14:23:53.875Z,74.89
2022-10-13T14:26:20.332Z,74.34
2022-10-13T14:28:46.984Z,74.60
2022-10-13T14:31:13.504Z,75.36
2022-10-13T14:33:39.892Z,74.46
2022-10-13T14:36:07.417Z,74.77
2022-10-13T14:38:34.524Z,74.79
2022-10-13T14:41:02.460Z,75.24
2022-10-13T14:43:29.419Z,75.20
2022-10-13T14:45:56.220Z,75.35
2022-10-13T14:48:24.760Z,74.96
2022-10-13T14:50:52.692Z,74.89
2022-10-13T14:53:19.132Z,75.81
2022-10-13T14:55:45.543Z,76.11
2022-10-13T14:58:12.271Z,76.28
2022-10-13T15:00:38.887Z,75.98
2022-10-13T15:03:05.299Z,76.54
2022-10-13T15:05:31.872Z,76.32
2022-10-13T15:07:58.284Z,76.76
2022-10-13T15:10:24.778Z,77.35
2022-10-13T15:12:51.188Z,77.39
2022-10-13T15:15:17.703Z,78.30
2022-10-13T15:17:44.076Z,77.87
2022-10-13T15:20:10.771Z,78.20
2022-10-13T15:22:37.405Z,78.82
2022-10-13T15:25:07.758Z,78.41
2022-10-13T15:27:39.310Z,79.07
2022-10-13T15:30:08.839Z,78.87
2022-10-13T15:32:35.326Z,78.73
2022-10-13T15:35:02.020Z,79.06
2022-10-13T15:37:28.377Z,79.47
2022-10-13T15:39:57.398Z,79.68
2022-10-13T15:42:24.304Z,79.76
2022-10-13T15:45:08.781Z,80.29
2022-10-13T15:47:36.419Z,80.09
2022-10-13T15:50:03.648Z,80.20
2022-10-13T15:52:34.690Z,80.25
2022-10-13T15:55:02.025Z,80.23
2022-10-13T15:57:28.505Z,80.76
2022-10-13T15:59:54.884Z,81.12
2022-10-13T16:02:23.209Z,80.72
2022-10-13T16:04:50.640Z,80.74
2022-10-13T16:07:18.407Z,81.47
2022-10-13T16:09:45.259Z,81.57
2022-10-13T16:12:11.693Z,81.64
2022-10-13T16:14:38.095Z,81.69
2022-10-13T16:17:04.466Z,82.31
2022-10-13T16:19:30.992Z,81.83
2022-10-13T16:21:57.435Z,82.10
2022-10-13T16:24:23.884Z,82.63
2022-10-13T16:26:50.292Z,82.15
2022-10-13T16:29:16.912Z,82.25
2022-10-13T16:31:43.358Z,82.61
2022-10-13T16:34:10.609Z,83.11
2022-10-13T16:36:37.136Z,82.65
2022-10-13T16:39:03.607Z,82.94
2022-10-13T16:41:30.017Z,83.08
2022-10-13T16:43:56.597Z,83.30
2022-10-13T16:46:23.703Z,83.00
2022-10-13T16:48:50.188Z,83.37
2022-10-13T16:51:22.529Z,83.17
2022-10-13T16:54:03.908Z,83.68
2022-10-13T16:56:31.793Z,83.31
2022-10-13T16:59:04.548Z,84.10
2022-10-13T17:01:32.396Z,84.48
2022-10-13T17:03:59.718Z,84.27
2022-10-13T17:06:28.465Z,84.57
2022-10-13T17:08:57.743Z,84.75
2022-10-13T17:11:30.373Z,84.64
2022-10-13T17:13:58.038Z,84.76
2022-10-13T17:16:25.284Z,84.61
2022-10-13T17:18:51.755Z,85.22
2022-10-13T17:21:18.337Z,85.14
2022-10-13T17:23:48.678Z,85.56
2022-10-13T17:26:17.438Z,84.98
2022-10-13T17:28:44.548Z,85.32
2022-10-13T17:31:20.651Z,85.64
2022-10-13T17:33:48.442Z,85.56
2022-10-13T17:36:16.726Z,85.63
2022-10-13T17:38:43.762Z,85.95
2022-10-13T17:41:11.184Z,85.77
2022-10-13T17:43:39.011Z,85.73
2022-10-13T17:46:35.026Z,85.47
2022-10-13T17:48:59.396Z,85.94
2022-10-13T17:51:25.971Z,85.86
2022-10-13T17:53:52.881Z,86.05
2022-10-13T17:56:21.881Z,86.42
2022-10-13T17:58:50.274Z,86.11
2022-10-13T18:01:19.714Z,86.10
2022-10-13T18:03:49.814Z,86.42
2022-10-13T18:06:17.020Z,86.88
2022-10-13T18:08:43.839Z,85.98
2022-10-13T18:11:16.902Z,86.29
2022-10-13T18:13:44.999Z,86.34
2022-10-13T18:16:22.213Z,86.89
2022-10-13T18:18:50.054Z,86.77
2022-10-13T18:21:19.542Z,86.66
2022-10-13T18:23:46.281Z,86.79
2022-10-13T18:26:15.258Z,86.96
2022-10-13T18:28:43.594Z,86.88
2022-10-13T18:31:13.876Z,86.75
2022-10-13T18:33:40.902Z,87.69
2022-10-13T18:36:15.153Z,87.03
2022-10-13T18:38:41.718Z,86.99
2022-10-13T18:41:08.252Z,87.30
2022-10-13T18:43:34.819Z,87.35
2022-10-13T18:46:02.379Z,87.17
2022-10-13T18:48:28.893Z,87.15
2022-10-13T18:50:55.323Z,87.64
2022-10-13T18:53:21.799Z,87.90
2022-10-13T18:55:48.405Z,87.33
2022-10-13T18:58:14.856Z,87.32
2022-10-13T19:00:41.290Z,87.65
2022-10-13T19:03:08.227Z,87.50
2022-10-13T19:05:39.317Z,87.66
2022-10-13T19:08:09.317Z,87.64
2022-10-13T19:10:36.448Z,87.59
2022-10-13T19:13:03.650Z,87.72
2022-10-13T19:15:30.206Z,87.95
2022-10-13T19:17:56.603Z,87.65
2022-10-13T19:20:23.032Z,88.03
2022-10-13T19:22:49.474Z,88.11
2022-10-13T19:25:15.868Z,88.58
2022-10-13T19:27:42.279Z,88.19
2022-10-13T19:30:09.381Z,87.91
2022-10-13T19:32:38.591Z,87.96
2022-10-13T19:35:05.672Z,88.84
2022-10-13T19:37:32.186Z,88.28
2022-10-13T19:39:58.580Z,88.57
2022-10-13T19:42:25.009Z,88.49
2022-10-13T19:44:51.379Z,88.39
2022-10-13T19:47:18.115Z,88.19
2022-10-13T19:49:44.735Z,88.31
2022-10-13T19:52:11.134Z,88.52
2022-10-13T19:54:37.506Z,88.04
2022-10-13T19:57:03.909Z,88.97
2022-10-13T19:59:30.394Z,88.46
2022-10-13T20:01:57.412Z,89.13
2022-10-13T20:04:24.789Z,88.98
2022-10-13T20:06:51.405Z,88.89
2022-10-13T20:09:19.423Z,88.97
2022-10-13T20:11:48.161Z,88.72
2022-10-13T20:14:14.913Z,88.97
2022-10-13T20:16:41.817Z,88.97
2022-10-13T20:19:08.252Z,88.94
2022-10-13T20:21:34.636Z,88.63
2022-10-13T20:24:01.034Z,89.33
2022-10-13T20:26:27.480Z,88.98
2022-10-13T20:28:54.906Z,89.63
2022-10-13T20:31:22.704Z,89.22
2022-10-13T20:33:54.140Z,89.08
2022-10-13T20:36:20.804Z,88.91
2022-10-13T20:38:49.099Z,89.02
2022-10-13T20:41:27.433Z,89.38
2022-10-13T20:43:56.204Z,89.20
2022-10-13T20:46:26.045Z,89.52
2022-10-13T20:51:40.712Z,89.54
2022-10-13T20:54:07.699Z,89.76
2022-10-13T20:56:34.073Z,89.35
2022-10-13T20:59:24.050Z,89.79
2022-10-13T21:01:50.429Z,89.78
2022-10-13T21:04:16.833Z,89.81
2022-10-13T21:06:43.403Z,89.78
2022-10-13T21:09:09.943Z,90.10
2022-10-13T21:11:36.510Z,89.94
2022-10-13T21:14:06.676Z,90.07
2022-10-13T21:16:33.219Z,89.78
2022-10-13T21:18:59.677Z,90.05
2022-10-13T21:21:31.323Z,90.32
2022-10-13T21:24:04.390Z,89.76
2022-10-13T21:26:32.274Z,89.87
2022-10-13T21:28:59.383Z,90.22
2022-10-13T21:31:26.450Z,90.58
2022-10-13T21:33:53.577Z,90.45
2022-10-13T21:36:31.669Z,90.25
2022-10-13T21:39:00.403Z,90.72
2022-10-13T21:41:28.010Z,90.44
2022-10-13T21:43:54.779Z,90.21
2022-10-13T21:46:25.841Z,90.38
2022-10-13T21:48:54.138Z,90.41
2022-10-13T21:51:25.845Z,90.89
2022-10-13T21:53:54.871Z,90.51
2022-10-13T21:56:22.229Z,90.51
2022-10-13T21:58:49.231Z,90.89
2022-10-13T22:01:19.825Z,90.34
2022-10-13T22:03:47.130Z,90.44
2022-10-13T22:06:19.287Z,90.72
2022-10-13T22:08:49.435Z,90.65
2022-10-13T22:11:16.725Z,90.85
2022-10-13T22:13:43.076Z,90.46
2022-10-13T22:16:12.707Z,91.02
2022-10-13T22:18:39.107Z,90.59
2022-10-13T22:21:21.119Z,91.25
2022-10-13T22:23:48.173Z,90.61
2022-10-13T22:26:17.044Z,90.74
2022-10-13T22:28:44.159Z,91.08
2022-10-13T22:31:13.872Z,90.25
2022-10-13T22:33:41.912Z,90.63
2022-10-13T22:36:10.651Z,90.50
2022-10-13T22:38:37.088Z,91.42
2022-10-13T22:41:05.828Z,90.77
2022-10-13T22:43:32.749Z,91.07
2022-10-13T22:45:59.240Z,90.91
2022-10-13T22:48:25.619Z,91.56
2022-10-13T22:50:52.188Z,90.74
2022-10-13T22:53:18.860Z,90.88
2022-10-13T22:55:45.501Z,90.96
2022-10-13T22:58:12.062Z,91.25
2022-10-13T23:00:39.171Z,90.58
2022-10-13T23:03:06.217Z,91.24
2022-10-13T23:05:32.701Z,91.29
2022-10-13T23:07:59.116Z,90.90
2022-10-13T23:10:25.677Z,91.11
2022-10-13T23:12:52.074Z,91.02
2022-10-13T23:15:18.435Z,91.20
2022-10-13T23:17:45.217Z,91.14
2022-10-13T23:20:12.050Z,91.45
2022-10-13T23:22:38.436Z,91.15
2022-10-13T23:25:05.101Z,91.65
2022-10-13T23:27:31.456Z,91.35
2022-10-13T23:29:57.823Z,91.32
2022-10-13T23:32:24.243Z,91.47
2022-10-13T23:34:50.729Z,91.29
2022-10-13T23:37:17.653Z,90.85
2022-10-13T23:39:43.984Z,91.70
2022-10-13T23:42:10.390Z,91.46
2022-10-13T23:44:36.704Z,91.20
2022-10-13T23:47:03.909Z,91.78
2022-10-13T23:49:30.255Z,91.61
2022-10-13T23:51:56.676Z,91.28
2022-10-13T23:54:23.019Z,91.23
2022-10-13T23:56:49.379Z,91.08
2022-10-13T23:59:15.763Z,91.88
